KPQI

Northern Maine Regional Arpt at Presque Is Airport

Presque Isle, Maine, USA
METAR KPQI 151656Z AUTO 27009KT 10SM OVC055 02/M01 A3004 RMK AO2 SLP219 T00221006 FZRANO
Observed Flight Rules
Dec-15 @ 16:56 UTC (21 minutes ago) Visual Flight Rules
Wind Visibility Clouds
270° at 9 knots 10 miles
  • Overcast at 5,500' AGL
Temperatures Readings
Current 2°C / 36°F
Dewpoint -1°C / 30°F
Humidity 81%
Altimeter 30.04" Hg
Pressure 1021.9 hPa
Elevation 146
METAR KPQI 151656Z AUTO 27009KT 10SM OVC055 02/M01 A3004 RMK AO2 SLP219 T00221006 FZRANO
Observed Flight Rules
Dec-15 @ 16:56 UTC
(21 minutes ago)
VFR
Wind Visibility
270° at 9 knots 10 miles
Clouds
  • Overcast at 5,500' AGL
Temperature Dewpoint
2°C / 36°F -1°C / 30°F
Humidity Altimeter Pressure
81% 30.04" Hg 1021.9 hPa